sensor_id;sensor_type;location;lat;lon;timestamp;temperature;humidity
23335;DHT22;11839;48.598;8.870;2023-05-10T00:01:22;16.50;99.90
23335;DHT22;11839;48.598;8.870;2023-05-10T00:03:49;16.40;99.90
23335;DHT22;11839;48.598;8.870;2023-05-10T00:06:16;16.40;99.90
23335;DHT22;11839;48.598;8.870;2023-05-10T00:08:44;16.30;99.90
23335;DHT22;11839;48.598;8.870;2023-05-10T00:11:12;16.10;99.90
23335;DHT22;11839;48.598;8.870;2023-05-10T00:13:38;15.90;99.90
23335;DHT22;11839;48.598;8.870;2023-05-10T00:16:06;16.00;99.90
23335;DHT22;11839;48.598;8.870;2023-05-10T00:18:32;16.10;99.90
23335;DHT22;11839;48.598;8.870;2023-05-10T00:20:59;15.80;99.90
23335;DHT22;11839;48.598;8.870;2023-05-10T00:23:26;15.80;99.90
23335;DHT22;11839;48.598;8.870;2023-05-10T00:25:52;15.70;99.90
23335;DHT22;11839;48.598;8.870;2023-05-10T00:28:21;15.80;99.90
23335;DHT22;11839;48.598;8.870;2023-05-10T00:30:47;15.60;99.90
23335;DHT22;11839;48.598;8.870;2023-05-10T00:33:14;15.50;99.90
23335;DHT22;11839;48.598;8.870;2023-05-10T00:35:41;15.80;99.90
23335;DHT22;11839;48.598;8.870;2023-05-10T00:38:08;16.00;99.90
23335;DHT22;11839;48.598;8.870;2023-05-10T00:40:35;15.90;99.90
23335;DHT22;11839;48.598;8.870;2023-05-10T00:43:02;16.00;99.90
23335;DHT22;11839;48.598;8.870;2023-05-10T00:45:31;15.90;99.90
23335;DHT22;11839;48.598;8.870;2023-05-10T00:48:00;16.10;99.90
23335;DHT22;11839;48.598;8.870;2023-05-10T00:50:28;16.20;99.90
23335;DHT22;11839;48.598;8.870;2023-05-10T00:52:55;16.30;99.90
23335;DHT22;11839;48.598;8.870;2023-05-10T00:55:21;16.10;99.90
23335;DHT22;11839;48.598;8.870;2023-05-10T00:57:48;16.40;99.90
23335;DHT22;11839;48.598;8.870;2023-05-10T01:00:16;16.40;99.90
23335;DHT22;11839;48.598;8.870;2023-05-10T01:02:45;16.10;99.90
23335;DHT22;11839;48.598;8.870;2023-05-10T01:05:12;16.10;99.90
23335;DHT22;11839;48.598;8.870;2023-05-10T01:07:39;16.00;99.90
23335;DHT22;11839;48.598;8.870;2023-05-10T01:10:07;16.10;99.90
23335;DHT22;11839;48.598;8.870;2023-05-10T01:12:36;16.10;99.90
23335;DHT22;11839;48.598;8.870;2023-05-10T01:15:04;16.30;99.90
23335;DHT22;11839;48.598;8.870;2023-05-10T01:17:32;16.00;99.90
23335;DHT22;11839;48.598;8.870;2023-05-10T01:20:01;16.20;99.90
23335;DHT22;11839;48.598;8.870;2023-05-10T01:25:42;16.30;99.90
23335;DHT22;11839;48.598;8.870;2023-05-10T01:28:29;16.20;99.90
23335;DHT22;11839;48.598;8.870;2023-05-10T01:31:17;16.10;99.90
23335;DHT22;11839;48.598;8.870;2023-05-10T01:33:52;15.80;99.90
23335;DHT22;11839;48.598;8.870;2023-05-10T01:36:23;15.90;99.90
23335;DHT22;11839;48.598;8.870;2023-05-10T01:38:59;16.00;99.90
23335;DHT22;11839;48.598;8.870;2023-05-10T01:41:33;16.10;99.90
23335;DHT22;11839;48.598;8.870;2023-05-10T01:44:07;16.00;99.90
23335;DHT22;11839;48.598;8.870;2023-05-10T01:46:37;16.00;99.90
23335;DHT22;11839;48.598;8.870;2023-05-10T01:49:09;15.90;99.90
23335;DHT22;11839;48.598;8.870;2023-05-10T01:51:41;15.90;99.90
23335;DHT22;11839;48.598;8.870;2023-05-10T01:54:13;15.70;99.90
23335;DHT22;11839;48.598;8.870;2023-05-10T01:56:41;15.60;99.90
23335;DHT22;11839;48.598;8.870;2023-05-10T01:59:13;15.90;99.90
23335;DHT22;11839;48.598;8.870;2023-05-10T02:01:42;16.20;99.90
23335;DHT22;11839;48.598;8.870;2023-05-10T02:04:11;16.10;99.90
23335;DHT22;11839;48.598;8.870;2023-05-10T02:06:41;16.00;99.90
23335;DHT22;11839;48.598;8.870;2023-05-10T02:09:10;16.00;99.90
23335;DHT22;11839;48.598;8.870;2023-05-10T02:11:38;16.00;99.90
23335;DHT22;11839;48.598;8.870;2023-05-10T02:14:07;15.80;99.90
23335;DHT22;11839;48.598;8.870;2023-05-10T02:16:36;16.00;99.90
23335;DHT22;11839;48.598;8.870;2023-05-10T02:19:05;16.10;99.90
23335;DHT22;11839;48.598;8.870;2023-05-10T02:21:35;15.90;99.90
23335;DHT22;11839;48.598;8.870;2023-05-10T02:24:04;15.90;99.90
23335;DHT22;11839;48.598;8.870;2023-05-10T02:26:33;16.20;99.90
23335;DHT22;11839;48.598;8.870;2023-05-10T02:29:01;16.10;99.90
23335;DHT22;11839;48.598;8.870;2023-05-10T02:31:30;16.20;99.90
23335;DHT22;11839;48.598;8.870;2023-05-10T02:33:58;16.00;99.90
23335;DHT22;11839;48.598;8.870;2023-05-10T02:36:26;15.90;99.90
23335;DHT22;11839;48.598;8.870;2023-05-10T02:38:55;15.90;99.90
23335;DHT22;11839;48.598;8.870;2023-05-10T02:41:24;15.90;99.90
23335;DHT22;11839;48.598;8.870;2023-05-10T02:43:52;15.80;99.90
23335;DHT22;11839;48.598;8.870;2023-05-10T02:46:22;15.70;99.90
23335;DHT22;11839;48.598;8.870;2023-05-10T02:48:49;15.70;99.90
23335;DHT22;11839;48.598;8.870;2023-05-10T02:51:18;15.60;99.90
23335;DHT22;11839;48.598;8.870;2023-05-10T02:53:47;15.60;99.90
23335;DHT22;11839;48.598;8.870;2023-05-10T02:56:24;15.50;99.90
23335;DHT22;11839;48.598;8.870;2023-05-10T02:58:52;15.60;99.90
23335;DHT22;11839;48.598;8.870;2023-05-10T03:01:19;15.40;99.90
23335;DHT22;11839;48.598;8.870;2023-05-10T03:03:46;15.50;99.90
23335;DHT22;11839;48.598;8.870;2023-05-10T03:06:13;15.50;99.90
23335;DHT22;11839;48.598;8.870;2023-05-10T03:08:40;15.50;99.90
23335;DHT22;11839;48.598;8.870;2023-05-10T03:11:22;15.60;99.90
23335;DHT22;11839;48.598;8.870;2023-05-10T03:13:59;15.40;99.90
23335;DHT22;11839;48.598;8.870;2023-05-10T03:16:34;15.20;99.90
23335;DHT22;11839;48.598;8.870;2023-05-10T03:19:06;15.40;99.90
23335;DHT22;11839;48.598;8.870;2023-05-10T03:21:38;15.40;99.90
23335;DHT22;11839;48.598;8.870;2023-05-10T03:24:09;15.40;99.90
23335;DHT22;11839;48.598;8.870;2023-05-10T03:26:40;15.30;99.90
23335;DHT22;11839;48.598;8.870;2023-05-10T03:29:10;15.10;99.90
23335;DHT22;11839;48.598;8.870;2023-05-10T03:31:38;15.30;99.90
23335;DHT22;11839;48.598;8.870;2023-05-10T03:34:05;15.20;99.90
23335;DHT22;11839;48.598;8.870;2023-05-10T03:36:32;15.30;99.90
23335;DHT22;11839;48.598;8.870;2023-05-10T03:38:59;15.30;99.90
23335;DHT22;11839;48.598;8.870;2023-05-10T03:41:26;15.50;99.90
23335;DHT22;11839;48.598;8.870;2023-05-10T03:43:54;15.40;99.90
23335;DHT22;11839;48.598;8.870;2023-05-10T03:46:21;15.50;99.90
23335;DHT22;11839;48.598;8.870;2023-05-10T03:48:48;15.40;99.90
23335;DHT22;11839;48.598;8.870;2023-05-10T03:51:15;15.20;99.90
23335;DHT22;11839;48.598;8.870;2023-05-10T03:53:41;15.30;99.90
23335;DHT22;11839;48.598;8.870;2023-05-10T03:56:08;15.30;99.90
23335;DHT22;11839;48.598;8.870;2023-05-10T03:58:35;15.40;99.90
23335;DHT22;11839;48.598;8.870;2023-05-10T04:01:03;15.30;99.90
23335;DHT22;11839;48.598;8.870;2023-05-10T04:03:30;15.40;99.90
23335;DHT22;11839;48.598;8.870;2023-05-10T04:06:00;15.30;99.90
23335;DHT22;11839;48.598;8.870;2023-05-10T04:08:27;15.20;99.90
23335;DHT22;11839;48.598;8.870;2023-05-10T04:10:54;15.40;99.90
23335;DHT22;11839;48.598;8.870;2023-05-10T04:13:21;15.50;99.90
23335;DHT22;11839;48.598;8.870;2023-05-10T04:15:48;15.40;99.90
23335;DHT22;11839;48.598;8.870;2023-05-10T04:18:16;15.40;99.90
23335;DHT22;11839;48.598;8.870;2023-05-10T04:20:43;15.40;99.90
23335;DHT22;11839;48.598;8.870;2023-05-10T04:23:10;15.60;99.90
23335;DHT22;11839;48.598;8.870;2023-05-10T04:25:37;15.20;99.90
23335;DHT22;11839;48.598;8.870;2023-05-10T04:28:04;15.40;99.90
23335;DHT22;11839;48.598;8.870;2023-05-10T04:30:30;15.00;99.90
23335;DHT22;11839;48.598;8.870;2023-05-10T04:32:57;15.00;99.90
23335;DHT22;11839;48.598;8.870;2023-05-10T04:35:26;15.00;99.90
23335;DHT22;11839;48.598;8.870;2023-05-10T04:37:53;15.20;99.90
23335;DHT22;11839;48.598;8.870;2023-05-10T04:40:20;15.40;99.90
23335;DHT22;11839;48.598;8.870;2023-05-10T04:42:47;15.10;99.90
23335;DHT22;11839;48.598;8.870;2023-05-10T04:45:13;15.30;99.90
23335;DHT22;11839;48.598;8.870;2023-05-10T04:47:41;15.50;99.90
23335;DHT22;11839;48.598;8.870;2023-05-10T04:50:08;15.60;99.90
23335;DHT22;11839;48.598;8.870;2023-05-10T04:52:36;15.70;99.90
23335;DHT22;11839;48.598;8.870;2023-05-10T04:55:03;15.60;99.90
23335;DHT22;11839;48.598;8.870;2023-05-10T04:57:32;15.60;99.90
23335;DHT22;11839;48.598;8.870;2023-05-10T04:59:59;15.40;99.90
23335;DHT22;11839;48.598;8.870;2023-05-10T05:02:27;15.30;99.90
23335;DHT22;11839;48.598;8.870;2023-05-10T05:04:55;15.50;99.90
23335;DHT22;11839;48.598;8.870;2023-05-10T05:07:23;15.60;99.90
23335;DHT22;11839;48.598;8.870;2023-05-10T05:09:51;15.50;99.90
23335;DHT22;11839;48.598;8.870;2023-05-10T05:12:18;15.60;99.90
23335;DHT22;11839;48.598;8.870;2023-05-10T05:14:45;15.60;99.90
23335;DHT22;11839;48.598;8.870;2023-05-10T05:17:11;15.70;99.90
23335;DHT22;11839;48.598;8.870;2023-05-10T05:19:38;15.70;99.90
23335;DHT22;11839;48.598;8.870;2023-05-10T05:22:06;15.70;99.90
23335;DHT22;11839;48.598;8.870;2023-05-10T05:24:35;15.70;99.90
23335;DHT22;11839;48.598;8.870;2023-05-10T05:27:04;15.70;99.90
23335;DHT22;11839;48.598;8.870;2023-05-10T05:29:32;15.80;99.90
23335;DHT22;11839;48.598;8.870;2023-05-10T05:31:58;15.60;99.90
23335;DHT22;11839;48.598;8.870;2023-05-10T05:34:25;15.70;99.90
23335;DHT22;11839;48.598;8.870;2023-05-10T05:36:52;15.60;99.90
23335;DHT22;11839;48.598;8.870;2023-05-10T05:39:19;15.50;99.90
23335;DHT22;11839;48.598;8.870;2023-05-10T05:41:46;15.70;99.90
23335;DHT22;11839;48.598;8.870;2023-05-10T05:44:14;15.60;99.90
23335;DHT22;11839;48.598;8.870;2023-05-10T05:46:41;15.80;99.90
23335;DHT22;11839;48.598;8.870;2023-05-10T05:49:08;15.80;99.90
23335;DHT22;11839;48.598;8.870;2023-05-10T05:51:35;16.10;99.90
23335;DHT22;11839;48.598;8.870;2023-05-10T05:54:02;16.10;99.90
23335;DHT22;11839;48.598;8.870;2023-05-10T05:56:29;16.10;99.90
23335;DHT22;11839;48.598;8.870;2023-05-10T05:58:56;15.90;99.90
23335;DHT22;11839;48.598;8.870;2023-05-10T06:01:24;15.90;99.90
23335;DHT22;11839;48.598;8.870;2023-05-10T06:03:51;15.90;99.90
23335;DHT22;11839;48.598;8.870;2023-05-10T06:06:18;16.00;99.90
23335;DHT22;11839;48.598;8.870;2023-05-10T06:08:45;16.20;99.90
23335;DHT22;11839;48.598;8.870;2023-05-10T06:11:12;16.40;99.90
23335;DHT22;11839;48.598;8.870;2023-05-10T06:13:39;16.70;99.90
23335;DHT22;11839;48.598;8.870;2023-05-10T06:16:06;16.70;99.90
23335;DHT22;11839;48.598;8.870;2023-05-10T06:18:34;16.50;99.90
23335;DHT22;11839;48.598;8.870;2023-05-10T06:21:01;16.60;99.90
23335;DHT22;11839;48.598;8.870;2023-05-10T06:23:28;16.70;99.90
23335;DHT22;11839;48.598;8.870;2023-05-10T06:25:55;16.90;99.90
23335;DHT22;11839;48.598;8.870;2023-05-10T06:28:22;16.90;99.90
23335;DHT22;11839;48.598;8.870;2023-05-10T06:30:49;17.00;99.90
23335;DHT22;11839;48.598;8.870;2023-05-10T06:33:15;17.20;99.90
23335;DHT22;11839;48.598;8.870;2023-05-10T06:35:44;17.40;99.90
23335;DHT22;11839;48.598;8.870;2023-05-10T06:38:10;17.20;99.90
23335;DHT22;11839;48.598;8.870;2023-05-10T06:40:41;17.30;99.90
23335;DHT22;11839;48.598;8.870;2023-05-10T06:43:08;17.00;99.90
23335;DHT22;11839;48.598;8.870;2023-05-10T06:45:34;16.80;99.90
23335;DHT22;11839;48.598;8.870;2023-05-10T06:48:01;16.90;99.90
23335;DHT22;11839;48.598;8.870;2023-05-10T06:50:28;17.00;99.90
23335;DHT22;11839;48.598;8.870;2023-05-10T06:52:56;17.10;99.90
23335;DHT22;11839;48.598;8.870;2023-05-10T06:55:23;16.90;99.90
23335;DHT22;11839;48.598;8.870;2023-05-10T06:57:50;16.90;99.90
23335;DHT22;11839;48.598;8.870;2023-05-10T07:00:18;17.00;99.90
23335;DHT22;11839;48.598;8.870;2023-05-10T07:02:45;16.90;99.90
23335;DHT22;11839;48.598;8.870;2023-05-10T07:05:12;17.20;99.90
23335;DHT22;11839;48.598;8.870;2023-05-10T07:07:39;17.00;99.90
23335;DHT22;11839;48.598;8.870;2023-05-10T07:10:08;17.20;99.90
23335;DHT22;11839;48.598;8.870;2023-05-10T07:12:36;17.40;99.90
23335;DHT22;11839;48.598;8.870;2023-05-10T07:15:04;17.10;99.90
23335;DHT22;11839;48.598;8.870;2023-05-10T07:17:32;17.00;99.90
23335;DHT22;11839;48.598;8.870;2023-05-10T07:19:59;17.00;99.90
23335;DHT22;11839;48.598;8.870;2023-05-10T07:22:26;17.10;99.90
23335;DHT22;11839;48.598;8.870;2023-05-10T07:24:54;17.00;99.90
23335;DHT22;11839;48.598;8.870;2023-05-10T07:27:22;17.00;99.90
23335;DHT22;11839;48.598;8.870;2023-05-10T07:29:49;17.10;99.90
23335;DHT22;11839;48.598;8.870;2023-05-10T07:32:16;17.10;99.90
23335;DHT22;11839;48.598;8.870;2023-05-10T07:34:43;17.30;99.90
23335;DHT22;11839;48.598;8.870;2023-05-10T07:37:10;17.20;99.90
23335;DHT22;11839;48.598;8.870;2023-05-10T07:39:37;17.60;99.90
23335;DHT22;11839;48.598;8.870;2023-05-10T07:42:03;17.70;99.90
23335;DHT22;11839;48.598;8.870;2023-05-10T07:44:32;18.00;99.90
23335;DHT22;11839;48.598;8.870;2023-05-10T07:46:59;17.90;99.90
23335;DHT22;11839;48.598;8.870;2023-05-10T07:49:26;17.80;99.90
23335;DHT22;11839;48.598;8.870;2023-05-10T07:51:53;17.80;99.90
23335;DHT22;11839;48.598;8.870;2023-05-10T07:54:20;18.20;99.90
23335;DHT22;11839;48.598;8.870;2023-05-10T07:56:47;18.10;99.90
23335;DHT22;11839;48.598;8.870;2023-05-10T07:59:15;17.80;99.90
23335;DHT22;11839;48.598;8.870;2023-05-10T08:01:44;17.70;99.90
23335;DHT22;11839;48.598;8.870;2023-05-10T08:04:11;18.10;99.90
23335;DHT22;11839;48.598;8.870;2023-05-10T08:06:38;18.10;99.90
23335;DHT22;11839;48.598;8.870;2023-05-10T08:09:06;18.20;99.90
23335;DHT22;11839;48.598;8.870;2023-05-10T08:11:33;18.10;99.90
23335;DHT22;11839;48.598;8.870;2023-05-10T08:13:59;18.30;99.90
23335;DHT22;11839;48.598;8.870;2023-05-10T08:16:26;18.10;99.90
23335;DHT22;11839;48.598;8.870;2023-05-10T08:18:55;18.40;99.90
23335;DHT22;11839;48.598;8.870;2023-05-10T08:21:22;18.60;99.90
23335;DHT22;11839;48.598;8.870;2023-05-10T08:23:49;18.60;99.90
23335;DHT22;11839;48.598;8.870;2023-05-10T08:26:16;18.20;99.90
23335;DHT22;11839;48.598;8.870;2023-05-10T08:28:43;18.50;99.90
23335;DHT22;11839;48.598;8.870;2023-05-10T08:31:11;18.90;99.90
23335;DHT22;11839;48.598;8.870;2023-05-10T08:33:39;18.50;99.90
23335;DHT22;11839;48.598;8.870;2023-05-10T08:36:07;18.60;99.90
23335;DHT22;11839;48.598;8.870;2023-05-10T08:38:34;18.80;99.90
23335;DHT22;11839;48.598;8.870;2023-05-10T08:41:02;19.10;99.90
23335;DHT22;11839;48.598;8.870;2023-05-10T08:43:29;19.10;99.90
23335;DHT22;11839;48.598;8.870;2023-05-10T08:45:59;19.20;99.90
23335;DHT22;11839;48.598;8.870;2023-05-10T08:48:29;19.00;99.90
23335;DHT22;11839;48.598;8.870;2023-05-10T08:50:59;18.80;99.90
23335;DHT22;11839;48.598;8.870;2023-05-10T08:53:30;18.80;99.90
23335;DHT22;11839;48.598;8.870;2023-05-10T08:55:58;19.00;99.90
23335;DHT22;11839;48.598;8.870;2023-05-10T08:58:25;19.10;99.90
23335;DHT22;11839;48.598;8.870;2023-05-10T09:00:52;18.80;99.90
23335;DHT22;11839;48.598;8.870;2023-05-10T09:03:19;18.80;99.90
23335;DHT22;11839;48.598;8.870;2023-05-10T09:05:46;18.50;99.90
23335;DHT22;11839;48.598;8.870;2023-05-10T09:08:13;18.40;99.90
23335;DHT22;11839;48.598;8.870;2023-05-10T09:10:43;18.60;99.90
23335;DHT22;11839;48.598;8.870;2023-05-10T09:13:14;18.60;99.90
23335;DHT22;11839;48.598;8.870;2023-05-10T09:15:43;18.80;99.90
23335;DHT22;11839;48.598;8.870;2023-05-10T09:18:10;18.30;99.90
23335;DHT22;11839;48.598;8.870;2023-05-10T09:20:36;18.60;99.90
23335;DHT22;11839;48.598;8.870;2023-05-10T09:23:03;18.90;99.90
23335;DHT22;11839;48.598;8.870;2023-05-10T09:25:30;19.30;99.90
23335;DHT22;11839;48.598;8.870;2023-05-10T09:28:00;19.30;99.90
23335;DHT22;11839;48.598;8.870;2023-05-10T09:30:28;19.70;99.90
23335;DHT22;11839;48.598;8.870;2023-05-10T09:32:56;19.30;99.90
23335;DHT22;11839;48.598;8.870;2023-05-10T09:35:24;19.30;99.90
23335;DHT22;11839;48.598;8.870;2023-05-10T09:37:55;19.30;99.90
23335;DHT22;11839;48.598;8.870;2023-05-10T09:40:23;19.10;99.90
23335;DHT22;11839;48.598;8.870;2023-05-10T09:42:54;19.20;99.90
23335;DHT22;11839;48.598;8.870;2023-05-10T09:45:24;18.40;99.90
23335;DHT22;11839;48.598;8.870;2023-05-10T09:47:51;18.40;99.90
23335;DHT22;11839;48.598;8.870;2023-05-10T09:50:19;19.10;99.90
23335;DHT22;11839;48.598;8.870;2023-05-10T09:52:48;19.60;99.90
23335;DHT22;11839;48.598;8.870;2023-05-10T09:55:17;18.90;99.90
23335;DHT22;11839;48.598;8.870;2023-05-10T09:57:45;19.20;99.90
23335;DHT22;11839;48.598;8.870;2023-05-10T10:00:17;19.00;99.90
23335;DHT22;11839;48.598;8.870;2023-05-10T10:02:47;18.70;99.90
23335;DHT22;11839;48.598;8.870;2023-05-10T10:05:15;18.70;99.90
23335;DHT22;11839;48.598;8.870;2023-05-10T10:07:42;18.00;99.90
23335;DHT22;11839;48.598;8.870;2023-05-10T10:10:10;18.50;99.90
23335;DHT22;11839;48.598;8.870;2023-05-10T10:12:38;18.80;99.90
23335;DHT22;11839;48.598;8.870;2023-05-10T10:15:07;19.00;99.90
23335;DHT22;11839;48.598;8.870;2023-05-10T10:17:36;19.40;99.90
23335;DHT22;11839;48.598;8.870;2023-05-10T10:20:06;19.20;99.90
23335;DHT22;11839;48.598;8.870;2023-05-10T10:22:34;18.90;99.90
23335;DHT22;11839;48.598;8.870;2023-05-10T10:25:01;18.80;99.90
23335;DHT22;11839;48.598;8.870;2023-05-10T10:27:36;18.80;99.90
23335;DHT22;11839;48.598;8.870;2023-05-10T10:30:13;18.60;99.90
23335;DHT22;11839;48.598;8.870;2023-05-10T10:33:00;17.40;99.90
23335;DHT22;11839;48.598;8.870;2023-05-10T10:35:30;16.30;99.90
23335;DHT22;11839;48.598;8.870;2023-05-10T10:37:58;15.90;99.90
23335;DHT22;11839;48.598;8.870;2023-05-10T10:40:26;15.90;99.90
23335;DHT22;11839;48.598;8.870;2023-05-10T10:42:53;15.80;99.90
23335;DHT22;11839;48.598;8.870;2023-05-10T10:45:21;15.70;99.90
23335;DHT22;11839;48.598;8.870;2023-05-10T10:47:50;15.30;99.90
23335;DHT22;11839;48.598;8.870;2023-05-10T10:50:20;15.10;99.90
23335;DHT22;11839;48.598;8.870;2023-05-10T10:52:50;15.20;99.90
23335;DHT22;11839;48.598;8.870;2023-05-10T10:55:19;15.50;99.90
23335;DHT22;11839;48.598;8.870;2023-05-10T10:57:49;16.10;99.90
23335;DHT22;11839;48.598;8.870;2023-05-10T11:00:25;15.90;99.90
23335;DHT22;11839;48.598;8.870;2023-05-10T11:02:53;15.70;99.90
23335;DHT22;11839;48.598;8.870;2023-05-10T11:05:36;16.20;99.90
23335;DHT22;11839;48.598;8.870;2023-05-10T11:08:27;16.40;99.90
23335;DHT22;11839;48.598;8.870;2023-05-10T11:11:05;16.60;99.90
23335;DHT22;11839;48.598;8.870;2023-05-10T11:13:34;16.80;99.90
23335;DHT22;11839;48.598;8.870;2023-05-10T11:16:15;16.60;99.90
23335;DHT22;11839;48.598;8.870;2023-05-10T11:18:57;16.60;99.90
23335;DHT22;11839;48.598;8.870;2023-05-10T11:21:24;16.90;99.90
23335;DHT22;11839;48.598;8.870;2023-05-10T11:23:53;17.50;99.90
23335;DHT22;11839;48.598;8.870;2023-05-10T11:26:23;18.00;99.90
23335;DHT22;11839;48.598;8.870;2023-05-10T11:28:52;18.10;99.90
23335;DHT22;11839;48.598;8.870;2023-05-10T11:31:21;18.40;99.90
23335;DHT22;11839;48.598;8.870;2023-05-10T11:33:50;19.10;99.90
23335;DHT22;11839;48.598;8.870;2023-05-10T11:36:19;19.10;99.90
23335;DHT22;11839;48.598;8.870;2023-05-10T11:38:47;19.40;99.90
23335;DHT22;11839;48.598;8.870;2023-05-10T11:41:17;19.00;99.90
23335;DHT22;11839;48.598;8.870;2023-05-10T11:43:46;18.70;99.90
23335;DHT22;11839;48.598;8.870;2023-05-10T11:46:14;19.00;99.70
23335;DHT22;11839;48.598;8.870;2023-05-10T11:48:42;18.90;99.90
23335;DHT22;11839;48.598;8.870;2023-05-10T11:51:10;19.00;99.60
23335;DHT22;11839;48.598;8.870;2023-05-10T11:53:37;19.00;99.90
23335;DHT22;11839;48.598;8.870;2023-05-10T11:56:05;18.40;99.90
23335;DHT22;11839;48.598;8.870;2023-05-10T11:58:34;18.50;99.90
23335;DHT22;11839;48.598;8.870;2023-05-10T12:01:01;18.50;99.90
23335;DHT22;11839;48.598;8.870;2023-05-10T12:03:29;18.10;99.90
23335;DHT22;11839;48.598;8.870;2023-05-10T12:05:57;17.90;99.90
23335;DHT22;11839;48.598;8.870;2023-05-10T12:08:25;17.50;99.90
23335;DHT22;11839;48.598;8.870;2023-05-10T12:10:53;17.30;99.90
23335;DHT22;11839;48.598;8.870;2023-05-10T12:13:29;17.70;99.90
23335;DHT22;11839;48.598;8.870;2023-05-10T12:15:58;17.50;99.90
23335;DHT22;11839;48.598;8.870;2023-05-10T12:18:26;17.20;99.90
23335;DHT22;11839;48.598;8.870;2023-05-10T12:20:53;17.40;99.90
23335;DHT22;11839;48.598;8.870;2023-05-10T12:23:20;17.40;99.90
23335;DHT22;11839;48.598;8.870;2023-05-10T12:25:47;17.40;99.90
23335;DHT22;11839;48.598;8.870;2023-05-10T12:28:13;17.50;99.90
23335;DHT22;11839;48.598;8.870;2023-05-10T12:30:40;17.50;99.90
23335;DHT22;11839;48.598;8.870;2023-05-10T12:33:10;17.80;99.90
23335;DHT22;11839;48.598;8.870;2023-05-10T12:35:44;18.00;99.90
23335;DHT22;11839;48.598;8.870;2023-05-10T12:38:28;18.00;99.40
23335;DHT22;11839;48.598;8.870;2023-05-10T12:40:56;17.90;99.60
23335;DHT22;11839;48.598;8.870;2023-05-10T12:43:23;18.20;99.80
23335;DHT22;11839;48.598;8.870;2023-05-10T12:45:50;18.60;99.10
23335;DHT22;11839;48.598;8.870;2023-05-10T12:48:18;18.80;99.10
23335;DHT22;11839;48.598;8.870;2023-05-10T12:50:45;19.10;97.40
23335;DHT22;11839;48.598;8.870;2023-05-10T12:53:13;19.00;97.70
23335;DHT22;11839;48.598;8.870;2023-05-10T12:55:40;19.20;98.10
23335;DHT22;11839;48.598;8.870;2023-05-10T12:58:07;19.30;98.10
23335;DHT22;11839;48.598;8.870;2023-05-10T13:00:34;19.20;97.20
23335;DHT22;11839;48.598;8.870;2023-05-10T13:03:03;18.70;97.40
23335;DHT22;11839;48.598;8.870;2023-05-10T13:05:32;18.70;97.70
23335;DHT22;11839;48.598;8.870;2023-05-10T13:07:59;18.80;98.10
23335;DHT22;11839;48.598;8.870;2023-05-10T13:10:26;18.90;97.80
23335;DHT22;11839;48.598;8.870;2023-05-10T13:12:53;19.10;97.60
23335;DHT22;11839;48.598;8.870;2023-05-10T13:15:20;19.10;97.70
23335;DHT22;11839;48.598;8.870;2023-05-10T13:17:47;19.50;97.90
23335;DHT22;11839;48.598;8.870;2023-05-10T13:20:13;19.40;97.90
23335;DHT22;11839;48.598;8.870;2023-05-10T13:22:43;19.40;97.80
23335;DHT22;11839;48.598;8.870;2023-05-10T13:25:10;19.80;97.50
23335;DHT22;11839;48.598;8.870;2023-05-10T13:27:38;19.90;97.40
23335;DHT22;11839;48.598;8.870;2023-05-10T13:30:06;19.60;97.40
23335;DHT22;11839;48.598;8.870;2023-05-10T13:32:33;19.30;96.70
23335;DHT22;11839;48.598;8.870;2023-05-10T13:35:00;19.40;97.30
23335;DHT22;11839;48.598;8.870;2023-05-10T13:37:28;19.70;97.00
23335;DHT22;11839;48.598;8.870;2023-05-10T13:39:56;19.90;97.20
23335;DHT22;11839;48.598;8.870;2023-05-10T13:42:23;20.20;96.80
23335;DHT22;11839;48.598;8.870;2023-05-10T13:44:50;19.90;96.60
23335;DHT22;11839;48.598;8.870;2023-05-10T13:47:17;20.20;96.50
23335;DHT22;11839;48.598;8.870;2023-05-10T13:49:44;20.30;96.10
23335;DHT22;11839;48.598;8.870;2023-05-10T13:52:11;20.20;95.80
23335;DHT22;11839;48.598;8.870;2023-05-10T13:54:39;20.30;95.70
23335;DHT22;11839;48.598;8.870;2023-05-10T13:57:07;20.60;95.90
23335;DHT22;11839;48.598;8.870;2023-05-10T13:59:34;20.10;96.00
23335;DHT22;11839;48.598;8.870;2023-05-10T14:02:01;19.80;96.80
23335;DHT22;11839;48.598;8.870;2023-05-10T14:04:28;20.20;95.70
23335;DHT22;11839;48.598;8.870;2023-05-10T14:06:55;20.30;95.90
23335;DHT22;11839;48.598;8.870;2023-05-10T14:09:22;20.20;95.50
23335;DHT22;11839;48.598;8.870;2023-05-10T14:11:49;20.40;94.90
23335;DHT22;11839;48.598;8.870;2023-05-10T14:14:17;20.00;95.10
23335;DHT22;11839;48.598;8.870;2023-05-10T14:16:44;19.70;95.30
23335;DHT22;11839;48.598;8.870;2023-05-10T14:19:11;19.90;95.10
23335;DHT22;11839;48.598;8.870;2023-05-10T14:21:38;19.80;95.50
23335;DHT22;11839;48.598;8.870;2023-05-10T14:24:05;19.90;95.80
23335;DHT22;11839;48.598;8.870;2023-05-10T14:26:33;20.30;95.40
23335;DHT22;11839;48.598;8.870;2023-05-10T14:29:00;20.20;95.30
23335;DHT22;11839;48.598;8.870;2023-05-10T14:31:29;20.20;94.80
23335;DHT22;11839;48.598;8.870;2023-05-10T14:33:56;20.20;95.30
23335;DHT22;11839;48.598;8.870;2023-05-10T14:36:27;20.50;95.60
23335;DHT22;11839;48.598;8.870;2023-05-10T14:38:54;20.10;94.20
23335;DHT22;11839;48.598;8.870;2023-05-10T14:41:21;19.70;94.30
23335;DHT22;11839;48.598;8.870;2023-05-10T14:43:48;19.90;95.50
23335;DHT22;11839;48.598;8.870;2023-05-10T14:46:15;20.00;94.90
23335;DHT22;11839;48.598;8.870;2023-05-10T14:48:43;19.70;95.00
23335;DHT22;11839;48.598;8.870;2023-05-10T14:51:10;19.20;95.40
23335;DHT22;11839;48.598;8.870;2023-05-10T14:53:37;18.90;96.40
23335;DHT22;11839;48.598;8.870;2023-05-10T14:56:04;19.10;96.20
23335;DHT22;11839;48.598;8.870;2023-05-10T14:58:31;19.30;94.80
23335;DHT22;11839;48.598;8.870;2023-05-10T15:00:57;19.50;95.00
23335;DHT22;11839;48.598;8.870;2023-05-10T15:03:24;19.40;94.70
23335;DHT22;11839;48.598;8.870;2023-05-10T15:05:52;19.80;94.70
23335;DHT22;11839;48.598;8.870;2023-05-10T15:08:21;19.90;94.40
23335;DHT22;11839;48.598;8.870;2023-05-10T15:10:49;19.20;94.80
23335;DHT22;11839;48.598;8.870;2023-05-10T15:13:16;19.10;95.30
23335;DHT22;11839;48.598;8.870;2023-05-10T15:15:43;18.90;95.40
23335;DHT22;11839;48.598;8.870;2023-05-10T15:18:09;18.90;96.10
23335;DHT22;11839;48.598;8.870;2023-05-10T15:20:36;19.20;96.30
23335;DHT22;11839;48.598;8.870;2023-05-10T15:23:04;19.70;95.20
23335;DHT22;11839;48.598;8.870;2023-05-10T15:25:31;19.60;95.00
23335;DHT22;11839;48.598;8.870;2023-05-10T15:28:00;19.60;95.00
23335;DHT22;11839;48.598;8.870;2023-05-10T15:30:27;19.80;94.80
23335;DHT22;11839;48.598;8.870;2023-05-10T15:32:54;20.10;94.50
23335;DHT22;11839;48.598;8.870;2023-05-10T15:35:21;20.10;94.80
23335;DHT22;11839;48.598;8.870;2023-05-10T15:37:48;20.10;95.00
23335;DHT22;11839;48.598;8.870;2023-05-10T15:40:16;20.30;95.30